Time;durP1;ratioP1;P1;durP2;ratioP2;P2;SDS_P1;SDS_P2;PMS_P1;PMS_P2;Temp;Humidity;BMP_temperature;BMP_pressure;BME280_temperature;BME280_humidity;BME280_pressure;Samples;Min_cycle;Max_cycle;Signal;HPM_P1;HPM_P2
2022/03/20 05:02:32;;;;;;;26.97;22.50;;;5.40;98.00;;;;;;5047393;22;20846;-65
2022/03/20 05:04:58;;;;;;;23.87;21.30;;;5.40;98.10;;;;;;5015294;28;20927;-65
2022/03/20 05:07:25;;;;;;;26.23;21.83;;;5.40;98.30;;;;;;5015512;28;20854;-65
2022/03/20 05:15:26;;;;;;;26.20;22.30;;;5.40;98.70;;;;;;4980205;28;20485;-65
2022/03/20 05:17:54;;;;;;;26.37;22.40;;;5.40;98.80;;;;;;4995771;28;20577;-65
2022/03/20 05:20:22;;;;;;;24.63;22.00;;;5.50;99.10;;;;;;4995630;28;20459;-65
2022/03/20 05:22:49;;;;;;;27.87;23.43;;;5.50;99.10;;;;;;4994436;28;20462;-65
2022/03/20 05:25:17;;;;;;;29.07;23.33;;;5.50;99.20;;;;;;4995493;28;20489;-65
2022/03/20 05:27:44;;;;;;;26.20;22.83;;;5.50;99.30;;;;;;4995326;28;20465;-65
2022/03/20 05:30:12;;;;;;;31.30;23.57;;;5.50;99.30;;;;;;4995373;28;20466;-68
2022/03/20 05:32:40;;;;;;;24.37;21.57;;;5.50;99.30;;;;;;4995365;28;20868;-64
2022/03/20 05:35:10;;;;;;;25.40;22.40;;;5.60;99.30;;;;;;4995138;28;20944;-64
2022/03/20 05:37:37;;;;;;;25.03;21.93;;;5.70;99.30;;;;;;4996217;28;20446;-65
2022/03/20 05:40:05;;;;;;;26.60;23.80;;;5.70;99.20;;;;;;4995520;28;20501;-64
2022/03/20 05:42:32;;;;;;;23.63;20.23;;;5.70;99.20;;;;;;4995469;28;20481;-65
2022/03/20 05:45:00;;;;;;;25.97;21.67;;;5.70;99.10;;;;;;4995895;28;20483;-64
2022/03/20 05:47:30;;;;;;;30.40;22.23;;;5.80;99.30;;;;;;4996488;28;20454;-65
2022/03/20 05:49:57;;;;;;;25.43;22.17;;;5.80;99.40;;;;;;4996887;28;20468;-65
2022/03/20 05:52:25;;;;;;;24.63;22.00;;;5.80;99.50;;;;;;4996779;28;20529;-65
2022/03/20 05:54:52;;;;;;;24.77;22.13;;;5.90;99.60;;;;;;4996203;28;20936;-65
2022/03/20 06:00:05;;;;;;;25.87;22.80;;;5.90;99.70;;;;;;4996594;28;20452;-65
2022/03/20 06:02:31;;;;;;;27.63;23.60;;;5.90;99.90;;;;;;4995675;28;20493;-64
2022/03/20 06:04:58;;;;;;;27.10;23.20;;;6.00;99.80;;;;;;4996379;28;20957;-65
2022/03/20 06:07:26;;;;;;;27.77;22.07;;;6.10;99.90;;;;;;4996521;28;20450;-65
2022/03/20 06:09:53;;;;;;;28.77;22.17;;;6.10;99.30;;;;;;4996846;28;20858;-65
2022/03/20 06:12:20;;;;;;;26.63;23.00;;;6.20;99.20;;;;;;4995898;28;20478;-65
2022/03/20 06:14:48;;;;;;;26.33;23.60;;;6.30;99.10;;;;;;4996089;28;20454;-64
2022/03/20 06:17:16;;;;;;;24.63;22.03;;;6.40;99.00;;;;;;4995276;28;20477;-64
2022/03/20 06:19:44;;;;;;;28.03;22.20;;;6.50;98.80;;;;;;4994554;28;20572;-63
2022/03/20 06:22:11;;;;;;;28.00;24.47;;;6.60;99.10;;;;;;4994449;28;20478;-64
2022/03/20 06:24:39;;;;;;;27.70;22.77;;;6.60;98.50;;;;;;4994972;28;20454;-65
2022/03/20 06:27:06;;;;;;;29.03;24.77;;;6.70;98.30;;;;;;4994326;28;20454;-65
2022/03/20 06:29:33;;;;;;;27.57;23.23;;;6.80;98.40;;;;;;4994579;28;20463;-66
2022/03/20 06:31:59;;;;;;;32.63;24.27;;;6.90;98.20;;;;;;4994904;28;20477;-64
2022/03/20 06:34:27;;;;;;;25.33;21.73;;;7.00;98.30;;;;;;4995470;28;20458;-64
2022/03/20 06:36:57;;;;;;;25.60;21.97;;;7.30;98.30;;;;;;4995529;28;20516;-65
2022/03/20 06:39:24;;;;;;;27.03;22.27;;;7.70;98.00;;;;;;4995945;28;20439;-64
2022/03/20 06:41:52;;;;;;;25.73;22.93;;;8.00;96.20;;;;;;4995389;28;20991;-64
2022/03/20 06:44:19;;;;;;;28.30;23.50;;;8.20;95.70;;;;;;4995763;28;20457;-64
2022/03/20 06:46:46;;;;;;;25.80;23.00;;;8.50;95.30;;;;;;4996082;28;20964;-64
2022/03/20 06:49:13;;;;;;;29.00;22.33;;;8.80;94.60;;;;;;4995531;28;20487;-66
2022/03/20 06:51:40;;;;;;;30.70;25.00;;;9.10;93.70;;;;;;4995899;28;20481;-64
2022/03/20 06:54:07;;;;;;;30.20;23.17;;;9.40;92.80;;;;;;4995633;28;20465;-63
2022/03/20 06:56:34;;;;;;;26.47;23.70;;;9.60;92.90;;;;;;4994403;28;20484;-63
2022/03/20 06:59:02;;;;;;;27.23;24.37;;;9.80;91.80;;;;;;4994599;28;20458;-65
2022/03/20 07:01:30;;;;;;;29.67;23.57;;;10.10;90.60;;;;;;4994175;28;20486;-63
2022/03/20 07:03:56;;;;;;;26.53;23.73;;;10.30;89.40;;;;;;4994285;28;20458;-66
2022/03/20 07:06:26;;;;;;;27.57;24.73;;;10.60;87.60;;;;;;4994356;28;20963;-65
2022/03/20 07:08:58;;;;;;;27.63;24.73;;;10.80;87.20;;;;;;4994418;28;20458;-66
2022/03/20 07:11:25;;;;;;;28.83;25.00;;;11.00;87.10;;;;;;4994321;28;20544;-66
2022/03/20 07:13:53;;;;;;;26.43;23.70;;;11.30;84.20;;;;;;4993798;28;20469;-64
2022/03/20 07:16:28;;;;;;;29.17;25.10;;;11.50;82.30;;;;;;4993854;28;21054;-65
2022/03/20 07:18:55;;;;;;;28.63;25.67;;;11.70;81.10;;;;;;4994418;28;20445;-63
2022/03/20 07:21:23;;;;;;;28.33;25.27;;;11.90;80.70;;;;;;4994282;28;20489;-64
2022/03/20 07:23:51;;;;;;;26.53;23.83;;;12.10;79.50;;;;;;4994561;28;20485;-65
2022/03/20 07:31:48;;;;;;;27.53;24.73;;;12.90;76.10;;;;;;4994035;28;20457;-64
2022/03/20 07:34:15;;;;;;;28.50;25.50;;;13.30;73.20;;;;;;4994116;28;20458;-66
2022/03/20 07:36:42;;;;;;;28.00;25.07;;;13.40;72.10;;;;;;4994562;28;20482;-65
2022/03/20 07:39:09;;;;;;;27.37;24.57;;;13.50;70.80;;;;;;4994523;28;20465;-64
2022/03/20 07:41:36;;;;;;;26.60;24.00;;;13.70;71.40;;;;;;4993563;28;20985;-64
2022/03/20 07:44:02;;;;;;;26.93;24.03;;;13.90;69.40;;;;;;4993776;28;20462;-64
2022/03/20 07:46:29;;;;;;;28.27;25.43;;;14.20;69.30;;;;;;4996196;28;20814;-65
2022/03/20 07:48:59;;;;;;;28.33;25.13;;;14.60;67.80;;;;;;4997237;28;20454;-64
2022/03/20 07:51:26;;;;;;;28.67;25.77;;;15.00;67.30;;;;;;4997346;28;20485;-64
2022/03/20 07:53:53;;;;;;;27.53;24.83;;;15.40;64.00;;;;;;4997401;28;20461;-63
2022/03/20 07:56:22;;;;;;;29.90;26.97;;;15.50;62.90;;;;;;4996916;28;20513;-64
2022/03/20 07:58:49;;;;;;;25.77;23.37;;;15.60;62.60;;;;;;4997074;28;20464;-63
2022/03/20 08:01:15;;;;;;;28.37;25.57;;;16.00;63.40;;;;;;4996476;28;20489;-64
2022/03/20 08:03:42;;;;;;;28.17;25.27;;;16.60;61.90;;;;;;4997038;28;20457;-64
2022/03/20 08:06:10;;;;;;;27.20;24.70;;;17.00;59.10;;;;;;4997044;28;20456;-64
2022/03/20 08:08:39;;;;;;;26.20;23.60;;;17.40;58.50;;;;;;4997001;28;20461;-63
2022/03/20 08:11:06;;;;;;;28.47;25.87;;;17.90;57.60;;;;;;4996919;28;20478;-64
2022/03/20 08:13:32;;;;;;;27.80;25.00;;;18.20;56.40;;;;;;4996965;28;20821;-63
2022/03/20 08:15:59;;;;;;;29.03;26.20;;;18.40;56.70;;;;;;4996765;28;20461;-63
2022/03/20 08:18:27;;;;;;;28.70;26.10;;;18.50;56.80;;;;;;4996979;28;20548;-64
2022/03/20 08:20:54;;;;;;;28.27;25.50;;;18.80;54.60;;;;;;4996690;28;20481;-65
2022/03/20 08:23:22;;;;;;;27.90;25.20;;;19.20;53.60;;;;;;4996637;28;20946;-64
2022/03/20 08:25:49;;;;;;;29.93;27.03;;;19.40;53.40;;;;;;4996823;28;20457;-65
2022/03/20 08:28:15;;;;;;;29.03;26.37;;;19.70;52.60;;;;;;4996598;28;20946;-63
2022/03/20 08:30:42;;;;;;;28.80;26.20;;;19.70;51.80;;;;;;4996402;28;20478;-65
2022/03/20 08:33:09;;;;;;;27.77;25.27;;;20.00;52.10;;;;;;4996478;28;20965;-65
2022/03/20 08:35:36;;;;;;;27.83;25.13;;;20.10;52.00;;;;;;4996672;28;20454;-64
2022/03/20 08:38:03;;;;;;;29.47;26.53;;;20.40;51.00;;;;;;4996575;28;20482;-65
2022/03/20 08:40:33;;;;;;;28.10;25.57;;;20.50;49.30;;;;;;4996388;28;20448;-64
2022/03/20 08:43:00;;;;;;;28.43;25.80;;;19.90;49.30;;;;;;4996748;28;20454;-65
2022/03/20 08:45:29;;;;;;;29.83;27.13;;;19.70;50.10;;;;;;4996281;28;20453;-64
2022/03/20 08:47:56;;;;;;;30.57;27.67;;;19.70;49.40;;;;;;4996136;28;20461;-64
2022/03/20 08:50:23;;;;;;;28.70;26.10;;;19.90;50.30;;;;;;4996193;28;20461;-64
2022/03/20 08:52:49;;;;;;;29.83;26.93;;;19.90;49.20;;;;;;4996903;28;20805;-64
2022/03/20 08:55:17;;;;;;;29.87;26.97;;;20.20;49.00;;;;;;4999177;28;20454;-64
2022/03/20 08:57:48;;;;;;;29.73;26.70;;;20.60;48.40;;;;;;4998829;28;21027;-64
2022/03/20 09:00:16;;;;;;;29.40;26.70;;;20.70;49.70;;;;;;4998796;28;20474;-63
2022/03/20 09:02:44;;;;;;;28.80;26.10;;;20.90;47.60;;;;;;4995890;28;20434;-64
2022/03/20 09:05:12;;;;;;;28.03;25.37;;;21.20;48.20;;;;;;4995694;28;20460;-64
2022/03/20 09:07:39;;;;;;;29.47;26.67;;;21.40;47.30;;;;;;4995995;28;20960;-63
2022/03/20 09:10:06;;;;;;;28.97;26.30;;;21.60;46.60;;;;;;4995868;28;20533;-64
2022/03/20 09:12:34;;;;;;;28.53;25.87;;;21.80;45.80;;;;;;4995995;28;20478;-63
2022/03/20 09:15:03;;;;;;;28.00;25.50;;;21.70;45.60;;;;;;4995597;28;20458;-64
2022/03/20 09:20:15;;;;;;;28.00;25.17;;;22.50;45.30;;;;;;4995608;28;20418;-63
2022/03/20 09:22:42;;;;;;;29.20;26.40;;;22.60;43.30;;;;;;4995539;28;20454;-63
2022/03/20 09:25:10;;;;;;;28.60;26.00;;;22.70;43.90;;;;;;4995553;28;20453;-63
2022/03/20 09:27:37;;;;;;;29.70;26.70;;;22.50;43.40;;;;;;4995305;28;20848;-63
2022/03/20 09:30:06;;;;;;;27.80;25.20;;;22.00;43.40;;;;;;4995125;28;20952;-63
2022/03/20 09:32:33;;;;;;;28.77;26.17;;;21.90;44.70;;;;;;4995162;28;20477;-63
2022/03/20 09:35:00;;;;;;;27.53;24.80;;;22.10;44.20;;;;;;4994957;28;20946;-63
2022/03/20 09:37:27;;;;;;;28.93;26.23;;;22.40;44.00;;;;;;4995218;28;20485;-63
2022/03/20 09:39:53;;;;;;;28.10;25.27;;;22.60;43.40;;;;;;4995082;28;20458;-63
2022/03/20 09:42:21;;;;;;;28.00;25.40;;;22.50;43.70;;;;;;4994701;28;21016;-63
2022/03/20 09:44:50;;;;;;;28.87;26.17;;;22.60;43.30;;;;;;4995713;28;20537;-64
2022/03/20 09:47:18;;;;;;;27.23;24.70;;;23.00;43.20;;;;;;4995635;28;20457;-64
2022/03/20 09:49:46;;;;;;;30.10;27.00;;;23.40;42.70;;;;;;4995071;28;20549;-64
2022/03/20 09:52:13;;;;;;;27.63;25.23;;;23.80;44.00;;;;;;4994647;28;20505;-64
2022/03/20 09:54:40;;;;;;;28.90;26.20;;;24.10;42.30;;;;;;4995053;28;20458;-64
2022/03/20 09:57:10;;;;;;;28.23;25.83;;;24.60;41.50;;;;;;4994760;28;20478;-63
2022/03/20 09:59:39;;;;;;;27.80;25.50;;;24.70;41.40;;;;;;4994708;28;20454;-63
2022/03/20 10:02:08;;;;;;;28.80;26.30;;;24.90;42.70;;;;;;4994212;28;20556;-63
2022/03/20 10:04:52;;;;;;;28.83;26.33;;;24.80;42.20;;;;;;4994715;28;20241;-63
2022/03/20 10:07:22;;;;;;;27.33;24.80;;;25.00;41.00;;;;;;4994589;28;20438;-63
2022/03/20 10:10:06;;;;;;;26.63;24.33;;;25.40;40.50;;;;;;4994238;28;20584;-63
2022/03/20 10:12:34;;;;;;;28.90;26.30;;;24.60;41.00;;;;;;4994747;28;20510;-64
2022/03/20 10:15:02;;;;;;;27.83;25.23;;;24.50;40.50;;;;;;4994635;28;20470;-63
2022/03/20 10:17:29;;;;;;;29.13;26.30;;;23.90;41.30;;;;;;4994622;28;20477;-63
2022/03/20 10:20:13;;;;;;;27.60;25.20;;;23.30;41.50;;;;;;4994354;28;20461;-63
2022/03/20 10:22:40;;;;;;;28.53;25.63;;;22.60;42.30;;;;;;4994311;28;20474;-64
2022/03/20 10:25:09;;;;;;;29.13;26.30;;;22.20;43.30;;;;;;4994605;28;20457;-64
2022/03/20 10:27:37;;;;;;;28.93;26.30;;;22.30;43.20;;;;;;4994620;28;20459;-64
2022/03/20 10:30:09;;;;;;;29.80;27.00;;;22.30;43.10;;;;;;4994087;28;20949;-64
2022/03/20 10:32:36;;;;;;;27.57;24.77;;;22.40;44.80;;;;;;4994366;28;20990;-64
2022/03/20 10:35:10;;;;;;;29.20;26.30;;;22.00;44.10;;;;;;4994372;28;20473;-64
2022/03/20 10:37:49;;;;;;;29.03;26.43;;;22.00;43.80;;;;;;4994676;28;20466;-65
2022/03/20 10:40:18;;;;;;;28.10;25.30;;;21.70;43.90;;;;;;4994215;28;20512;-64
2022/03/20 10:42:45;;;;;;;28.00;25.30;;;21.40;43.80;;;;;;4994454;28;20465;-65
2022/03/20 10:45:12;;;;;;;29.27;26.40;;;21.40;45.70;;;;;;4994114;28;20810;-64
2022/03/20 10:47:39;;;;;;;28.40;25.80;;;21.20;44.70;;;;;;4993935;28;20798;-63
2022/03/20 10:50:10;;;;;;;27.63;24.87;;;21.20;45.60;;;;;;4994258;28;20454;-64
2022/03/20 10:52:38;;;;;;;25.97;23.40;;;21.00;47.60;;;;;;4995098;28;20438;-64
2022/03/20 10:55:09;;;;;;;26.70;24.20;;;21.00;46.20;;;;;;4994216;28;20458;-64
2022/03/20 10:57:36;;;;;;;25.13;22.63;;;21.10;46.50;;;;;;4994672;28;20478;-64
2022/03/20 11:00:07;;;;;;;24.70;22.20;;;21.00;48.00;;;;;;4994007;28;20666;-64
2022/03/20 11:02:37;;;;;;;26.93;24.10;;;20.70;47.30;;;;;;4993896;28;20819;-64
2022/03/20 11:05:04;;;;;;;27.03;24.40;;;20.40;47.30;;;;;;4994102;28;20466;-65
2022/03/20 11:07:32;;;;;;;25.07;22.77;;;20.20;49.10;;;;;;4994208;28;20454;-64
2022/03/20 11:10:00;;;;;;;26.13;23.40;;;19.60;50.30;;;;;;4993998;28;20462;-64
2022/03/20 11:12:29;;;;;;;25.87;22.67;;;19.40;49.70;;;;;;4994060;28;20977;-64
2022/03/20 11:14:59;;;;;;;26.03;23.37;;;19.30;49.90;;;;;;4994788;28;20508;-65
2022/03/20 11:17:28;;;;;;;33.00;22.57;;;19.10;50.90;;;;;;4994033;28;20462;-64
2022/03/20 11:19:57;;;;;;;25.60;21.80;;;19.30;51.30;;;;;;4995676;28;20453;-64
2022/03/20 11:22:25;;;;;;;26.30;23.67;;;19.40;52.60;;;;;;4997577;28;20478;-64
2022/03/20 11:24:56;;;;;;;23.93;21.40;;;19.40;50.70;;;;;;4997256;28;20520;-63
2022/03/20 11:27:25;;;;;;;23.30;20.80;;;19.50;51.30;;;;;;4998029;28;20525;-63
2022/03/20 11:30:01;;;;;;;23.20;21.00;;;19.60;52.70;;;;;;4997489;28;20796;-63
2022/03/20 11:32:29;;;;;;;25.57;21.03;;;19.70;52.60;;;;;;4997349;28;20522;-65
2022/03/20 11:34:56;;;;;;;21.70;19.60;;;19.80;52.40;;;;;;4997170;28;20461;-63
2022/03/20 11:37:23;;;;;;;22.40;20.10;;;19.70;51.90;;;;;;4997503;28;20477;-63
2022/03/20 11:40:19;;;;;;;23.27;20.77;;;19.50;51.70;;;;;;4997620;28;20512;-63
2022/03/20 11:42:46;;;;;;;22.23;19.97;;;19.50;54.20;;;;;;4984388;28;20457;-63
2022/03/20 11:45:17;;;;;;;24.47;19.87;;;19.50;52.20;;;;;;4997281;28;20456;-64
2022/03/20 11:47:45;;;;;;;21.17;19.17;;;19.50;53.50;;;;;;4997663;28;20441;-64
2022/03/20 11:50:15;;;;;;;21.23;19.10;;;19.50;51.40;;;;;;4997604;28;20454;-64
2022/03/20 11:52:45;;;;;;;23.83;21.33;;;19.60;51.90;;;;;;4997590;28;20546;-63
2022/03/20 11:55:26;;;;;;;31.50;22.43;;;19.80;52.70;;;;;;4997407;28;20450;-64
2022/03/20 11:57:54;;;;;;;23.33;20.93;;;19.90;51.80;;;;;;4997339;28;20470;-64
2022/03/20 12:00:25;;;;;;;24.27;19.47;;;20.10;53.00;;;;;;4997006;28;20462;-65
2022/03/20 12:03:10;;;;;;;22.23;19.13;;;20.20;52.30;;;;;;4997490;28;20446;-65
2022/03/20 12:06:14;;;;;;;23.40;19.80;;;20.40;52.10;;;;;;4997183;28;20445;-62
2022/03/20 12:08:52;;;;;;;25.63;21.30;;;20.80;51.70;;;;;;4997150;28;20453;-63
2022/03/20 12:11:34;;;;;;;25.57;21.13;;;21.20;52.00;;;;;;4996921;28;20478;-63
2022/03/20 12:14:14;;;;;;;25.73;22.60;;;21.50;52.70;;;;;;4997010;28;20446;-63
2022/03/20 12:16:55;;;;;;;23.90;21.50;;;21.50;51.60;;;;;;4997056;28;20477;-63
2022/03/20 12:19:23;;;;;;;25.27;22.67;;;21.30;53.00;;;;;;4996802;28;20478;-64
2022/03/20 12:21:58;;;;;;;25.57;21.60;;;21.10;51.90;;;;;;4996780;28;20485;-65
2022/03/20 12:24:51;;;;;;;22.30;20.20;;;20.90;53.60;;;;;;4996603;28;20464;-63
2022/03/20 12:27:42;;;;;;;23.03;20.63;;;21.10;53.40;;;;;;4996496;28;20470;-63
2022/03/20 12:30:33;;;;;;;25.90;21.53;;;21.10;51.10;;;;;;4996412;28;20454;-63
2022/03/20 12:33:01;;;;;;;22.90;20.70;;;21.30;53.30;;;;;;4996183;28;20864;-63
2022/03/20 12:35:29;;;;;;;21.37;19.17;;;21.40;51.40;;;;;;4996515;28;20464;-63
2022/03/20 12:37:56;;;;;;;21.57;19.00;;;21.50;50.70;;;;;;4996010;28;20569;-64
2022/03/20 12:40:26;;;;;;;21.57;19.47;;;21.60;50.70;;;;;;4996906;28;20461;-64
2022/03/20 12:43:02;;;;;;;21.20;18.47;;;21.70;50.20;;;;;;4997061;28;20465;-63
2022/03/20 12:45:29;;;;;;;22.63;20.30;;;21.70;49.70;;;;;;4996189;28;20442;-64
2022/03/20 12:47:59;;;;;;;20.37;18.27;;;21.80;52.30;;;;;;4995965;28;20453;-63
2022/03/20 12:50:30;;;;;;;19.93;17.90;;;21.50;51.00;;;;;;4995294;28;25099;-64
2022/03/20 12:53:05;;;;;;;22.00;19.73;;;21.50;49.90;;;;;;4995711;28;20450;-64
2022/03/20 12:55:32;;;;;;;21.70;19.43;;;21.40;49.10;;;;;;4995795;28;20441;-64
2022/03/20 12:58:00;;;;;;;23.10;18.73;;;21.50;49.50;;;;;;4997417;28;20478;-64
2022/03/20 13:00:30;;;;;;;20.33;18.33;;;21.30;50.40;;;;;;4996416;28;20913;-64
2022/03/20 13:03:03;;;;;;;19.70;16.87;;;20.90;50.20;;;;;;4996845;28;20438;-64
2022/03/20 13:05:33;;;;;;;19.30;17.40;;;21.10;50.50;;;;;;4995817;28;20460;-64
2022/03/20 13:08:01;;;;;;;19.60;17.60;;;21.10;50.00;;;;;;4995553;28;20458;-64
2022/03/20 13:10:34;;;;;;;18.40;16.37;;;21.10;50.40;;;;;;4995461;28;20461;-64
2022/03/20 13:13:02;;;;;;;18.77;16.97;;;21.10;49.60;;;;;;4995100;28;20842;-64
2022/03/20 13:15:31;;;;;;;20.37;18.17;;;21.20;52.30;;;;;;4995463;28;20512;-64
2022/03/20 13:17:59;;;;;;;19.70;17.60;;;21.20;50.60;;;;;;4995283;28;20461;-64
2022/03/20 13:20:28;;;;;;;20.70;18.70;;;21.20;51.80;;;;;;4994811;28;20446;-63
2022/03/20 13:22:55;;;;;;;19.37;17.37;;;21.30;49.40;;;;;;4994937;28;20809;-63
2022/03/20 13:25:24;;;;;;;19.40;17.40;;;21.20;52.40;;;;;;4995176;28;20462;-64
2022/03/20 13:27:52;;;;;;;23.67;17.30;;;21.20;50.30;;;;;;4995540;28;20797;-64
2022/03/20 13:30:21;;;;;;;19.37;17.37;;;21.20;50.00;;;;;;4994976;28;20457;-63
2022/03/20 13:32:56;;;;;;;19.47;17.37;;;21.30;48.10;;;;;;4994949;28;20536;-64
2022/03/20 13:35:24;;;;;;;20.47;18.57;;;21.10;50.10;;;;;;4995095;28;20294;-64
2022/03/20 13:37:54;;;;;;;19.70;17.70;;;21.00;49.50;;;;;;4994923;28;20884;-64
2022/03/20 13:40:23;;;;;;;21.73;19.40;;;21.10;51.00;;;;;;4994850;28;20454;-64
2022/03/20 13:42:49;;;;;;;19.57;17.37;;;21.20;49.30;;;;;;4994020;28;20458;-64
2022/03/20 13:45:16;;;;;;;20.13;18.03;;;21.10;51.60;;;;;;4994149;28;20941;-64
2022/03/20 13:47:45;;;;;;;19.63;16.57;;;21.30;48.90;;;;;;4994688;28;20505;-63
2022/03/20 13:50:14;;;;;;;20.60;16.03;;;21.50;48.90;;;;;;4994932;28;20490;-64
2022/03/20 13:52:42;;;;;;;16.33;14.67;;;21.50;49.00;;;;;;4994394;28;20461;-64
2022/03/20 13:55:11;;;;;;;17.50;15.30;;;21.40;46.60;;;;;;4994209;28;20458;-64
2022/03/20 13:57:49;;;;;;;14.90;13.00;;;21.30;47.90;;;;;;4994543;28;20537;-63
2022/03/20 14:00:17;;;;;;;16.50;13.37;;;21.40;55.00;;;;;;4994209;28;20476;-63
2022/03/20 14:02:50;;;;;;;17.87;15.97;;;21.40;54.30;;;;;;4993692;28;20510;-63
2022/03/20 14:05:22;;;;;;;22.17;15.50;;;21.40;47.00;;;;;;4994476;28;20816;-63
2022/03/20 14:07:49;;;;;;;18.87;15.00;;;21.30;48.00;;;;;;4994486;28;20783;-63
2022/03/20 14:10:22;;;;;;;18.70;15.67;;;21.10;46.80;;;;;;4994364;28;20474;-63
2022/03/20 14:12:51;;;;;;;21.30;17.47;;;20.90;49.00;;;;;;4993969;28;20496;-63
2022/03/20 14:15:18;;;;;;;18.23;16.43;;;20.90;49.00;;;;;;4994393;28;20871;-63
2022/03/20 14:17:48;;;;;;;18.43;14.80;;;20.90;46.10;;;;;;4993780;28;20461;-63
2022/03/20 14:20:23;;;;;;;17.93;16.03;;;21.00;49.90;;;;;;4994239;28;20464;-64
2022/03/20 14:22:54;;;;;;;18.77;16.27;;;21.00;46.50;;;;;;4994305;28;20544;-64
2022/03/20 14:25:39;;;;;;;18.97;16.63;;;21.00;48.10;;;;;;4994177;28;20443;-64
2022/03/20 14:28:08;;;;;;;19.40;17.47;;;20.90;47.20;;;;;;4994352;28;20489;-64
2022/03/20 14:41:43;;;;;;;18.97;15.87;;;20.80;48.20;;;;;;4994001;28;20465;-64
2022/03/20 14:44:13;;;;;;;19.40;17.23;;;20.80;51.00;;;;;;4994163;28;20445;-64
2022/03/20 14:46:41;;;;;;;18.53;16.63;;;20.80;48.20;;;;;;4994874;28;20537;-63
2022/03/20 14:49:09;;;;;;;24.13;17.13;;;20.90;49.90;;;;;;4994080;28;20449;-64
2022/03/20 14:51:37;;;;;;;18.57;16.53;;;21.00;50.90;;;;;;4994172;28;20481;-64
2022/03/20 14:54:04;;;;;;;19.90;17.90;;;21.00;46.80;;;;;;4993979;28;20468;-64
2022/03/20 14:56:32;;;;;;;19.77;17.07;;;20.90;47.90;;;;;;4998420;28;20442;-65
2022/03/20 14:58:59;;;;;;;18.83;16.80;;;20.80;46.50;;;;;;4998726;28;20517;-65
2022/03/20 15:01:26;;;;;;;20.43;18.27;;;20.80;45.10;;;;;;4997668;28;20541;-64
2022/03/20 15:03:53;;;;;;;20.10;17.30;;;20.70;44.90;;;;;;4997668;28;20458;-64
2022/03/20 15:06:22;;;;;;;22.07;16.90;;;20.70;45.60;;;;;;4997604;28;20968;-65
2022/03/20 15:11:34;;;;;;;19.57;17.67;;;20.40;44.20;;;;;;4997878;28;20477;-63
2022/03/20 15:14:02;;;;;;;18.90;17.10;;;20.20;42.50;;;;;;4997615;28;20453;-64
2022/03/20 15:16:28;;;;;;;18.97;16.93;;;20.00;42.80;;;;;;4997678;28;20458;-64
2022/03/20 15:18:56;;;;;;;19.07;16.03;;;19.80;42.60;;;;;;4997619;28;20856;-64
2022/03/20 15:21:25;;;;;;;17.70;15.90;;;19.80;43.50;;;;;;4997353;28;20478;-65
2022/03/20 15:23:52;;;;;;;19.20;15.40;;;19.80;45.30;;;;;;4997292;28;20461;-64
2022/03/20 15:26:19;;;;;;;17.60;15.80;;;19.90;44.90;;;;;;4997534;28;20486;-64
2022/03/20 15:28:46;;;;;;;17.90;16.20;;;19.80;45.50;;;;;;4997887;28;20458;-63
2022/03/20 15:31:13;;;;;;;20.00;16.47;;;19.80;45.50;;;;;;4996952;28;20532;-63
2022/03/20 15:33:41;;;;;;;17.70;16.00;;;19.70;44.60;;;;;;4997306;28;20465;-63
2022/03/20 15:36:09;;;;;;;22.70;18.80;;;19.60;44.80;;;;;;4997471;28;20463;-64
2022/03/20 15:38:39;;;;;;;29.37;19.40;;;19.50;45.40;;;;;;4996949;28;20474;-64
2022/03/20 15:41:07;;;;;;;18.83;16.87;;;19.50;44.50;;;;;;4997118;28;20985;-64
2022/03/20 15:43:34;;;;;;;20.90;17.03;;;19.40;43.90;;;;;;4997018;28;20454;-63
2022/03/20 15:46:01;;;;;;;19.57;17.63;;;19.30;44.50;;;;;;4997223;28;20461;-65
2022/03/20 15:48:28;;;;;;;19.20;17.27;;;19.10;43.70;;;;;;4997070;28;20449;-65
2022/03/20 15:50:54;;;;;;;17.97;16.07;;;18.90;44.00;;;;;;4997136;28;20478;-65
2022/03/20 15:53:21;;;;;;;20.30;17.30;;;18.90;44.40;;;;;;4997156;28;20477;-65
2022/03/20 15:55:49;;;;;;;19.10;16.83;;;18.80;46.30;;;;;;4997274;28;20465;-65
2022/03/20 15:58:16;;;;;;;20.93;18.70;;;18.70;47.10;;;;;;4996892;28;20948;-65
2022/03/20 16:00:44;;;;;;;20.80;18.33;;;18.50;46.70;;;;;;4996762;28;20490;-65
2022/03/20 16:03:11;;;;;;;18.73;16.83;;;18.30;47.20;;;;;;4996818;28;20458;-65
2022/03/20 16:05:37;;;;;;;20.60;18.40;;;18.10;47.50;;;;;;4996083;28;20803;-65
2022/03/20 16:08:05;;;;;;;20.27;18.37;;;17.90;47.20;;;;;;4996806;28;20462;-65
2022/03/20 16:10:31;;;;;;;23.03;18.10;;;17.80;47.80;;;;;;4996771;28;20453;-65
2022/03/20 16:13:01;;;;;;;22.10;19.20;;;17.60;47.70;;;;;;4996913;28;20446;-65
2022/03/20 16:15:28;;;;;;;23.20;19.13;;;17.40;47.30;;;;;;4996625;28;20465;-65
2022/03/20 16:17:55;;;;;;;21.73;18.60;;;17.20;47.30;;;;;;4997165;28;20450;-65
2022/03/20 16:20:22;;;;;;;20.57;18.20;;;17.10;47.90;;;;;;4996629;28;21070;-65
2022/03/20 16:28:33;;;;;;;24.00;18.97;;;16.90;48.00;;;;;;4997310;28;20421;-63
2022/03/20 16:31:02;;;;;;;23.43;20.07;;;16.80;48.50;;;;;;4996736;28;20474;-63
2022/03/20 16:33:29;;;;;;;20.50;18.40;;;16.70;48.30;;;;;;4995679;28;20454;-63
2022/03/20 16:35:56;;;;;;;22.00;18.20;;;16.70;48.80;;;;;;4996138;28;20453;-64
2022/03/20 16:38:23;;;;;;;21.23;18.60;;;16.70;49.00;;;;;;4996227;28;20454;-64
2022/03/20 16:40:51;;;;;;;20.87;18.73;;;16.60;48.90;;;;;;4996432;28;20470;-64
2022/03/20 16:43:19;;;;;;;26.60;20.33;;;16.50;48.50;;;;;;4995627;28;20453;-64
2022/03/20 16:45:47;;;;;;;21.60;19.20;;;16.50;48.40;;;;;;4996165;28;20509;-63
2022/03/20 16:48:15;;;;;;;21.10;19.10;;;16.40;48.20;;;;;;4996359;28;20521;-64
2022/03/20 16:50:42;;;;;;;22.30;19.20;;;16.30;48.50;;;;;;4995990;28;20524;-63
2022/03/20 16:53:10;;;;;;;21.80;19.47;;;16.30;49.40;;;;;;4997304;28;20533;-64
2022/03/20 16:55:37;;;;;;;21.60;19.40;;;16.20;49.10;;;;;;4996264;28;20453;-64
2022/03/20 16:58:04;;;;;;;20.43;18.43;;;16.20;48.90;;;;;;4996324;28;20565;-63
2022/03/20 17:00:33;;;;;;;18.50;16.80;;;16.10;48.90;;;;;;4995375;28;20489;-64
2022/03/20 17:03:00;;;;;;;19.73;17.77;;;16.00;48.70;;;;;;4996257;28;20478;-64
2022/03/20 17:05:27;;;;;;;22.33;18.17;;;16.00;48.90;;;;;;4998988;28;20489;-64
2022/03/20 17:07:54;;;;;;;19.83;17.87;;;15.90;48.80;;;;;;4998036;28;20553;-64
2022/03/20 17:10:21;;;;;;;20.77;18.67;;;15.90;49.10;;;;;;4996404;28;20454;-64
2022/03/20 17:12:48;;;;;;;19.93;17.97;;;15.80;49.40;;;;;;4996615;28;20465;-63
2022/03/20 17:15:15;;;;;;;19.63;17.63;;;15.70;49.60;;;;;;5001176;28;20454;-64
2022/03/20 17:17:43;;;;;;;18.80;17.00;;;15.70;49.60;;;;;;5002723;28;20463;-63
2022/03/20 17:20:15;;;;;;;19.80;17.90;;;15.60;49.80;;;;;;4997480;28;20871;-63
2022/03/20 17:22:43;;;;;;;19.33;17.20;;;15.50;50.30;;;;;;4996361;28;20419;-64
2022/03/20 17:25:11;;;;;;;20.10;17.93;;;15.40;50.00;;;;;;4996301;28;20458;-63
2022/03/20 17:27:37;;;;;;;19.03;17.00;;;15.30;50.40;;;;;;4995795;28;20478;-64
2022/03/20 17:30:05;;;;;;;20.00;18.00;;;15.20;50.50;;;;;;4995377;28;20461;-64
2022/03/20 17:32:32;;;;;;;19.30;17.27;;;15.10;50.30;;;;;;4994847;28;20482;-64
2022/03/20 17:35:00;;;;;;;19.43;17.13;;;15.00;49.60;;;;;;4995678;28;20458;-64
2022/03/20 17:37:27;;;;;;;17.60;15.80;;;14.90;49.60;;;;;;4995735;28;20485;-63
2022/03/20 17:39:54;;;;;;;19.07;17.17;;;14.90;49.60;;;;;;4995273;28;20482;-63
2022/03/20 17:42:21;;;;;;;18.53;15.33;;;14.80;49.60;;;;;;4995421;28;20473;-63
2022/03/20 17:44:48;;;;;;;18.97;16.97;;;14.80;49.80;;;;;;4995316;28;20516;-63
2022/03/20 17:47:15;;;;;;;18.53;16.53;;;14.80;49.70;;;;;;4995170;28;20450;-63
2022/03/20 17:49:42;;;;;;;21.07;15.40;;;14.70;49.80;;;;;;4995311;28;20461;-63
2022/03/20 17:52:10;;;;;;;20.50;17.43;;;14.60;49.90;;;;;;4994934;28;20892;-63
2022/03/20 17:54:37;;;;;;;18.30;15.90;;;14.60;50.10;;;;;;4994721;28;20465;-64
2022/03/20 17:57:05;;;;;;;18.37;16.47;;;14.60;50.40;;;;;;4994803;28;20481;-63
2022/03/20 17:59:38;;;;;;;17.53;15.73;;;14.50;50.50;;;;;;4994382;28;20877;-64
2022/03/20 18:07:43;;;;;;;18.80;15.13;;;14.40;50.70;;;;;;4994563;28;20414;-65
2022/03/20 18:10:11;;;;;;;17.20;15.37;;;14.30;50.80;;;;;;4994915;28;20508;-64
2022/03/20 18:12:38;;;;;;;17.80;15.90;;;14.20;51.10;;;;;;4994720;28;20473;-63
2022/03/20 18:15:06;;;;;;;18.07;16.07;;;14.20;51.60;;;;;;4994416;28;20984;-63
2022/03/20 18:17:34;;;;;;;15.50;14.00;;;14.10;51.10;;;;;;4995137;28;20458;-63
2022/03/20 18:20:01;;;;;;;16.30;14.70;;;14.10;50.90;;;;;;4994479;28;20473;-65